sensor_id;sensor_type;location;lat;lon;timestamp;P1;durP1;ratioP1;P2;durP2;ratioP2
67861;SDS011;54665;51.462;6.698;2023-08-12T00:00:05;22.90;;;11.50;;
67861;SDS011;54665;51.462;6.698;2023-08-12T00:02:06;18.80;;;10.60;;
67861;SDS011;54665;51.462;6.698;2023-08-12T00:04:07;19.00;;;11.02;;
67861;SDS011;54665;51.462;6.698;2023-08-12T00:06:07;22.27;;;10.33;;
67861;SDS011;54665;51.462;6.698;2023-08-12T00:08:07;19.97;;;11.07;;
67861;SDS011;54665;51.462;6.698;2023-08-12T00:10:08;20.53;;;11.10;;
67861;SDS011;54665;51.462;6.698;2023-08-12T00:12:10;20.10;;;11.00;;
67861;SDS011;54665;51.462;6.698;2023-08-12T00:14:10;22.43;;;10.53;;
67861;SDS011;54665;51.462;6.698;2023-08-12T00:16:10;20.27;;;10.93;;
67861;SDS011;54665;51.462;6.698;2023-08-12T00:18:11;18.37;;;10.17;;
67861;SDS011;54665;51.462;6.698;2023-08-12T00:20:11;18.00;;;10.33;;
67861;SDS011;54665;51.462;6.698;2023-08-12T00:22:11;16.80;;;10.50;;
67861;SDS011;54665;51.462;6.698;2023-08-12T00:24:12;20.87;;;10.67;;
67861;SDS011;54665;51.462;6.698;2023-08-12T00:26:12;21.50;;;10.93;;
67861;SDS011;54665;51.462;6.698;2023-08-12T00:28:12;20.63;;;10.67;;
67861;SDS011;54665;51.462;6.698;2023-08-12T00:30:13;20.23;;;11.17;;
67861;SDS011;54665;51.462;6.698;2023-08-12T00:32:13;25.60;;;11.57;;
67861;SDS011;54665;51.462;6.698;2023-08-12T00:34:13;21.10;;;11.45;;
67861;SDS011;54665;51.462;6.698;2023-08-12T00:36:14;25.23;;;12.23;;
67861;SDS011;54665;51.462;6.698;2023-08-12T00:38:14;20.80;;;11.53;;
67861;SDS011;54665;51.462;6.698;2023-08-12T00:40:14;26.57;;;12.33;;
67861;SDS011;54665;51.462;6.698;2023-08-12T00:42:15;24.30;;;12.30;;
67861;SDS011;54665;51.462;6.698;2023-08-12T00:44:15;24.87;;;11.47;;
67861;SDS011;54665;51.462;6.698;2023-08-12T00:46:15;20.98;;;11.02;;
67861;SDS011;54665;51.462;6.698;2023-08-12T00:48:16;22.53;;;11.80;;
67861;SDS011;54665;51.462;6.698;2023-08-12T00:50:17;25.83;;;11.57;;
67861;SDS011;54665;51.462;6.698;2023-08-12T00:52:17;22.93;;;11.47;;
67861;SDS011;54665;51.462;6.698;2023-08-12T00:54:18;23.03;;;12.00;;
67861;SDS011;54665;51.462;6.698;2023-08-12T00:56:21;22.55;;;12.00;;
67861;SDS011;54665;51.462;6.698;2023-08-12T00:58:21;31.10;;;12.13;;
67861;SDS011;54665;51.462;6.698;2023-08-12T01:00:22;25.40;;;12.68;;
67861;SDS011;54665;51.462;6.698;2023-08-12T01:02:22;27.63;;;13.47;;
67861;SDS011;54665;51.462;6.698;2023-08-12T01:04:22;29.47;;;13.47;;
67861;SDS011;54665;51.462;6.698;2023-08-12T01:06:24;22.77;;;12.35;;
67861;SDS011;54665;51.462;6.698;2023-08-12T01:08:26;28.27;;;14.20;;
67861;SDS011;54665;51.462;6.698;2023-08-12T01:10:32;32.42;;;14.95;;
67861;SDS011;54665;51.462;6.698;2023-08-12T01:12:40;32.80;;;14.38;;
67861;SDS011;54665;51.462;6.698;2023-08-12T01:14:52;30.30;;;15.23;;
67861;SDS011;54665;51.462;6.698;2023-08-12T01:16:57;29.58;;;15.57;;
67861;SDS011;54665;51.462;6.698;2023-08-12T01:19:01;24.23;;;13.20;;
67861;SDS011;54665;51.462;6.698;2023-08-12T01:21:04;30.75;;;15.05;;
67861;SDS011;54665;51.462;6.698;2023-08-12T01:23:15;28.83;;;14.70;;
67861;SDS011;54665;51.462;6.698;2023-08-12T01:25:16;32.37;;;16.27;;
67861;SDS011;54665;51.462;6.698;2023-08-12T01:27:16;33.35;;;16.08;;
67861;SDS011;54665;51.462;6.698;2023-08-12T01:29:17;38.60;;;17.50;;
67861;SDS011;54665;51.462;6.698;2023-08-12T01:31:32;34.40;;;17.52;;
67861;SDS011;54665;51.462;6.698;2023-08-12T01:33:46;33.10;;;17.13;;
67861;SDS011;54665;51.462;6.698;2023-08-12T01:35:53;31.10;;;16.65;;
67861;SDS011;54665;51.462;6.698;2023-08-12T01:37:58;37.28;;;17.58;;
67861;SDS011;54665;51.462;6.698;2023-08-12T01:40:00;32.15;;;16.25;;
67861;SDS011;54665;51.462;6.698;2023-08-12T01:42:02;36.15;;;17.58;;
67861;SDS011;54665;51.462;6.698;2023-08-12T01:44:03;37.13;;;17.97;;
67861;SDS011;54665;51.462;6.698;2023-08-12T01:46:04;38.55;;;17.58;;
67861;SDS011;54665;51.462;6.698;2023-08-12T01:48:05;43.63;;;18.15;;
67861;SDS011;54665;51.462;6.698;2023-08-12T01:50:06;38.33;;;18.27;;
67861;SDS011;54665;51.462;6.698;2023-08-12T01:52:06;42.63;;;18.93;;
67861;SDS011;54665;51.462;6.698;2023-08-12T01:54:06;40.60;;;18.38;;
67861;SDS011;54665;51.462;6.698;2023-08-12T01:56:07;39.03;;;18.77;;
67861;SDS011;54665;51.462;6.698;2023-08-12T01:58:07;43.70;;;18.90;;
67861;SDS011;54665;51.462;6.698;2023-08-12T02:00:08;45.20;;;19.00;;
67861;SDS011;54665;51.462;6.698;2023-08-12T02:02:17;41.80;;;19.75;;
67861;SDS011;54665;51.462;6.698;2023-08-12T02:04:18;40.30;;;19.17;;
67861;SDS011;54665;51.462;6.698;2023-08-12T02:06:18;48.10;;;20.70;;
67861;SDS011;54665;51.462;6.698;2023-08-12T02:08:18;41.93;;;19.97;;
67861;SDS011;54665;51.462;6.698;2023-08-12T02:10:19;47.10;;;20.33;;
67861;SDS011;54665;51.462;6.698;2023-08-12T02:12:19;42.80;;;20.23;;
67861;SDS011;54665;51.462;6.698;2023-08-12T02:14:19;44.60;;;20.73;;
67861;SDS011;54665;51.462;6.698;2023-08-12T02:16:20;41.00;;;19.10;;
67861;SDS011;54665;51.462;6.698;2023-08-12T02:18:20;39.97;;;19.03;;
67861;SDS011;54665;51.462;6.698;2023-08-12T02:20:20;40.17;;;20.10;;
67861;SDS011;54665;51.462;6.698;2023-08-12T02:22:22;39.00;;;20.30;;
67861;SDS011;54665;51.462;6.698;2023-08-12T02:24:23;41.38;;;20.38;;
67861;SDS011;54665;51.462;6.698;2023-08-12T02:26:23;42.00;;;19.57;;
67861;SDS011;54665;51.462;6.698;2023-08-12T02:28:23;41.07;;;19.67;;
67861;SDS011;54665;51.462;6.698;2023-08-12T02:30:24;44.77;;;20.90;;
67861;SDS011;54665;51.462;6.698;2023-08-12T02:32:24;40.90;;;20.35;;
67861;SDS011;54665;51.462;6.698;2023-08-12T02:34:24;44.37;;;21.03;;
67861;SDS011;54665;51.462;6.698;2023-08-12T02:36:25;43.83;;;20.80;;
67861;SDS011;54665;51.462;6.698;2023-08-12T02:38:26;39.60;;;19.40;;
67861;SDS011;54665;51.462;6.698;2023-08-12T02:40:26;43.43;;;20.47;;
67861;SDS011;54665;51.462;6.698;2023-08-12T02:42:26;43.50;;;21.47;;
67861;SDS011;54665;51.462;6.698;2023-08-12T02:44:28;50.03;;;20.60;;
67861;SDS011;54665;51.462;6.698;2023-08-12T02:46:28;41.25;;;20.80;;
67861;SDS011;54665;51.462;6.698;2023-08-12T02:48:28;40.07;;;20.53;;
67861;SDS011;54665;51.462;6.698;2023-08-12T02:50:29;39.30;;;19.17;;
67861;SDS011;54665;51.462;6.698;2023-08-12T02:52:29;40.27;;;20.47;;
67861;SDS011;54665;51.462;6.698;2023-08-12T02:54:29;39.90;;;18.73;;
67861;SDS011;54665;51.462;6.698;2023-08-12T02:56:30;41.73;;;18.33;;
67861;SDS011;54665;51.462;6.698;2023-08-12T02:58:30;38.67;;;18.73;;
67861;SDS011;54665;51.462;6.698;2023-08-12T03:00:30;38.97;;;17.70;;
67861;SDS011;54665;51.462;6.698;2023-08-12T03:02:31;41.97;;;19.00;;
67861;SDS011;54665;51.462;6.698;2023-08-12T03:04:31;41.53;;;17.60;;
67861;SDS011;54665;51.462;6.698;2023-08-12T03:06:31;39.07;;;17.80;;
67861;SDS011;54665;51.462;6.698;2023-08-12T03:08:32;39.63;;;18.07;;
67861;SDS011;54665;51.462;6.698;2023-08-12T03:10:36;36.43;;;17.73;;
67861;SDS011;54665;51.462;6.698;2023-08-12T03:12:37;35.92;;;17.27;;
67861;SDS011;54665;51.462;6.698;2023-08-12T03:14:37;42.67;;;18.97;;
67861;SDS011;54665;51.462;6.698;2023-08-12T03:16:38;38.47;;;18.67;;
67861;SDS011;54665;51.462;6.698;2023-08-12T03:18:38;47.03;;;21.17;;
67861;SDS011;54665;51.462;6.698;2023-08-12T03:20:39;45.33;;;20.43;;
67861;SDS011;54665;51.462;6.698;2023-08-12T03:22:39;37.90;;;19.17;;
67861;SDS011;54665;51.462;6.698;2023-08-12T03:24:40;42.37;;;21.30;;
67861;SDS011;54665;51.462;6.698;2023-08-12T03:26:40;52.37;;;22.27;;
67861;SDS011;54665;51.462;6.698;2023-08-12T03:28:40;39.70;;;19.50;;
67861;SDS011;54665;51.462;6.698;2023-08-12T03:30:41;53.38;;;23.00;;
67861;SDS011;54665;51.462;6.698;2023-08-12T03:32:42;46.00;;;22.63;;
67861;SDS011;54665;51.462;6.698;2023-08-12T03:34:43;41.25;;;21.95;;
67861;SDS011;54665;51.462;6.698;2023-08-12T03:36:46;50.30;;;22.95;;
67861;SDS011;54665;51.462;6.698;2023-08-12T03:38:47;43.73;;;21.97;;
67861;SDS011;54665;51.462;6.698;2023-08-12T03:40:51;41.08;;;21.02;;
67861;SDS011;54665;51.462;6.698;2023-08-12T03:42:53;51.83;;;23.50;;
67861;SDS011;54665;51.462;6.698;2023-08-12T03:44:56;54.22;;;22.58;;
67861;SDS011;54665;51.462;6.698;2023-08-12T03:46:57;48.13;;;23.50;;
67861;SDS011;54665;51.462;6.698;2023-08-12T03:48:57;45.95;;;23.42;;
67861;SDS011;54665;51.462;6.698;2023-08-12T03:50:57;51.23;;;23.80;;
67861;SDS011;54665;51.462;6.698;2023-08-12T03:52:58;54.57;;;23.80;;
67861;SDS011;54665;51.462;6.698;2023-08-12T03:54:58;52.70;;;23.63;;
67861;SDS011;54665;51.462;6.698;2023-08-12T03:56:59;53.50;;;24.25;;
67861;SDS011;54665;51.462;6.698;2023-08-12T03:59:00;47.47;;;23.13;;
67861;SDS011;54665;51.462;6.698;2023-08-12T04:01:00;50.38;;;24.15;;
67861;SDS011;54665;51.462;6.698;2023-08-12T04:03:00;46.93;;;22.67;;
67861;SDS011;54665;51.462;6.698;2023-08-12T04:05:01;54.57;;;23.70;;
67861;SDS011;54665;51.462;6.698;2023-08-12T04:07:02;46.33;;;23.00;;
67861;SDS011;54665;51.462;6.698;2023-08-12T04:09:02;49.23;;;22.77;;
67861;SDS011;54665;51.462;6.698;2023-08-12T04:11:02;46.57;;;22.63;;
67861;SDS011;54665;51.462;6.698;2023-08-12T04:13:03;48.67;;;21.60;;
67861;SDS011;54665;51.462;6.698;2023-08-12T04:15:03;42.30;;;21.37;;
67861;SDS011;54665;51.462;6.698;2023-08-12T04:17:04;44.30;;;20.45;;
67861;SDS011;54665;51.462;6.698;2023-08-12T04:19:05;44.38;;;20.30;;
67861;SDS011;54665;51.462;6.698;2023-08-12T04:21:06;43.72;;;19.92;;
67861;SDS011;54665;51.462;6.698;2023-08-12T04:23:07;44.10;;;20.13;;
67861;SDS011;54665;51.462;6.698;2023-08-12T04:25:07;40.47;;;18.83;;
67861;SDS011;54665;51.462;6.698;2023-08-12T04:27:09;37.45;;;18.33;;
67861;SDS011;54665;51.462;6.698;2023-08-12T04:29:09;40.90;;;18.70;;
67861;SDS011;54665;51.462;6.698;2023-08-12T04:31:12;38.92;;;18.70;;
67861;SDS011;54665;51.462;6.698;2023-08-12T04:33:16;38.83;;;18.27;;
67861;SDS011;54665;51.462;6.698;2023-08-12T04:35:16;36.17;;;17.90;;
67861;SDS011;54665;51.462;6.698;2023-08-12T04:37:17;37.67;;;18.42;;
67861;SDS011;54665;51.462;6.698;2023-08-12T04:39:18;39.27;;;17.53;;
67861;SDS011;54665;51.462;6.698;2023-08-12T04:41:18;37.87;;;18.60;;
67861;SDS011;54665;51.462;6.698;2023-08-12T04:43:19;37.93;;;17.37;;
67861;SDS011;54665;51.462;6.698;2023-08-12T04:45:19;31.58;;;16.80;;
67861;SDS011;54665;51.462;6.698;2023-08-12T04:47:20;33.60;;;17.53;;
67861;SDS011;54665;51.462;6.698;2023-08-12T04:49:20;35.87;;;17.43;;
67861;SDS011;54665;51.462;6.698;2023-08-12T04:51:20;35.67;;;17.07;;
67861;SDS011;54665;51.462;6.698;2023-08-12T04:53:21;35.20;;;17.67;;
67861;SDS011;54665;51.462;6.698;2023-08-12T04:55:22;36.45;;;18.00;;
67861;SDS011;54665;51.462;6.698;2023-08-12T04:57:25;39.57;;;18.40;;
67861;SDS011;54665;51.462;6.698;2023-08-12T04:59:25;41.85;;;19.13;;
67861;SDS011;54665;51.462;6.698;2023-08-12T05:01:26;34.20;;;18.10;;
67861;SDS011;54665;51.462;6.698;2023-08-12T05:03:26;34.60;;;17.63;;
67861;SDS011;54665;51.462;6.698;2023-08-12T05:05:27;32.70;;;16.75;;
67861;SDS011;54665;51.462;6.698;2023-08-12T05:07:27;33.33;;;16.53;;
67861;SDS011;54665;51.462;6.698;2023-08-12T05:09:28;31.97;;;16.73;;
67861;SDS011;54665;51.462;6.698;2023-08-12T05:11:28;28.90;;;15.95;;
67861;SDS011;54665;51.462;6.698;2023-08-12T05:13:28;28.73;;;15.70;;
67861;SDS011;54665;51.462;6.698;2023-08-12T05:15:29;30.20;;;16.50;;
67861;SDS011;54665;51.462;6.698;2023-08-12T05:17:29;29.80;;;16.43;;
67861;SDS011;54665;51.462;6.698;2023-08-12T05:19:30;32.10;;;16.50;;
67861;SDS011;54665;51.462;6.698;2023-08-12T05:21:31;33.53;;;16.90;;
67861;SDS011;54665;51.462;6.698;2023-08-12T05:23:31;37.03;;;18.02;;
67861;SDS011;54665;51.462;6.698;2023-08-12T05:25:32;41.60;;;18.03;;
67861;SDS011;54665;51.462;6.698;2023-08-12T05:27:32;33.97;;;17.67;;
67861;SDS011;54665;51.462;6.698;2023-08-12T05:29:32;33.07;;;17.30;;
67861;SDS011;54665;51.462;6.698;2023-08-12T05:31:33;33.47;;;18.17;;
67861;SDS011;54665;51.462;6.698;2023-08-12T05:33:33;33.05;;;18.50;;
67861;SDS011;54665;51.462;6.698;2023-08-12T05:35:34;31.20;;;18.20;;
67861;SDS011;54665;51.462;6.698;2023-08-12T05:37:35;34.13;;;17.48;;
67861;SDS011;54665;51.462;6.698;2023-08-12T05:39:35;31.43;;;17.67;;
67861;SDS011;54665;51.462;6.698;2023-08-12T05:41:35;31.00;;;17.40;;
67861;SDS011;54665;51.462;6.698;2023-08-12T05:43:35;30.80;;;16.27;;
67861;SDS011;54665;51.462;6.698;2023-08-12T05:45:36;31.43;;;16.47;;
67861;SDS011;54665;51.462;6.698;2023-08-12T05:47:36;29.87;;;15.27;;
67861;SDS011;54665;51.462;6.698;2023-08-12T05:49:37;27.63;;;15.25;;
67861;SDS011;54665;51.462;6.698;2023-08-12T05:51:37;28.97;;;15.53;;
67861;SDS011;54665;51.462;6.698;2023-08-12T05:53:37;29.50;;;15.97;;
67861;SDS011;54665;51.462;6.698;2023-08-12T05:55:38;29.67;;;16.03;;
67861;SDS011;54665;51.462;6.698;2023-08-12T05:57:38;32.80;;;16.03;;
67861;SDS011;54665;51.462;6.698;2023-08-12T05:59:38;33.07;;;16.80;;
67861;SDS011;54665;51.462;6.698;2023-08-12T06:01:39;33.07;;;16.60;;
67861;SDS011;54665;51.462;6.698;2023-08-12T06:03:39;30.70;;;16.33;;
67861;SDS011;54665;51.462;6.698;2023-08-12T06:05:40;29.73;;;16.47;;
67861;SDS011;54665;51.462;6.698;2023-08-12T06:07:42;33.57;;;17.40;;
67861;SDS011;54665;51.462;6.698;2023-08-12T06:09:42;30.80;;;16.83;;
67861;SDS011;54665;51.462;6.698;2023-08-12T06:11:43;31.07;;;16.60;;
67861;SDS011;54665;51.462;6.698;2023-08-12T06:13:43;34.57;;;17.07;;
67861;SDS011;54665;51.462;6.698;2023-08-12T06:15:43;33.43;;;18.70;;
67861;SDS011;54665;51.462;6.698;2023-08-12T06:17:44;32.33;;;18.27;;
67861;SDS011;54665;51.462;6.698;2023-08-12T06:19:44;34.93;;;17.50;;
67861;SDS011;54665;51.462;6.698;2023-08-12T06:21:44;36.50;;;17.67;;
67861;SDS011;54665;51.462;6.698;2023-08-12T06:23:45;39.27;;;18.37;;
67861;SDS011;54665;51.462;6.698;2023-08-12T06:25:45;34.90;;;17.55;;
67861;SDS011;54665;51.462;6.698;2023-08-12T06:27:46;34.63;;;17.87;;
67861;SDS011;54665;51.462;6.698;2023-08-12T06:29:46;34.75;;;17.50;;
67861;SDS011;54665;51.462;6.698;2023-08-12T06:31:47;37.00;;;18.33;;
67861;SDS011;54665;51.462;6.698;2023-08-12T06:33:47;37.00;;;19.77;;
67861;SDS011;54665;51.462;6.698;2023-08-12T06:35:47;40.77;;;20.23;;
67861;SDS011;54665;51.462;6.698;2023-08-12T06:37:47;42.70;;;21.87;;
67861;SDS011;54665;51.462;6.698;2023-08-12T06:39:48;43.73;;;20.80;;
67861;SDS011;54665;51.462;6.698;2023-08-12T06:41:48;47.37;;;22.00;;
67861;SDS011;54665;51.462;6.698;2023-08-12T06:43:48;46.37;;;23.57;;
67861;SDS011;54665;51.462;6.698;2023-08-12T06:45:49;44.87;;;22.43;;
67861;SDS011;54665;51.462;6.698;2023-08-12T06:47:49;41.40;;;21.88;;
67861;SDS011;54665;51.462;6.698;2023-08-12T06:49:49;39.80;;;21.17;;
67861;SDS011;54665;51.462;6.698;2023-08-12T06:51:50;43.53;;;21.93;;
67861;SDS011;54665;51.462;6.698;2023-08-12T06:53:50;41.57;;;21.20;;
67861;SDS011;54665;51.462;6.698;2023-08-12T06:55:50;41.03;;;21.17;;
67861;SDS011;54665;51.462;6.698;2023-08-12T06:57:50;43.27;;;21.17;;
67861;SDS011;54665;51.462;6.698;2023-08-12T06:59:51;44.67;;;20.67;;
67861;SDS011;54665;51.462;6.698;2023-08-12T07:01:51;45.27;;;21.70;;
67861;SDS011;54665;51.462;6.698;2023-08-12T07:03:51;45.77;;;21.77;;
67861;SDS011;54665;51.462;6.698;2023-08-12T07:05:52;47.07;;;22.00;;
67861;SDS011;54665;51.462;6.698;2023-08-12T07:07:53;48.25;;;22.88;;
67861;SDS011;54665;51.462;6.698;2023-08-12T07:09:53;45.57;;;23.07;;
67861;SDS011;54665;51.462;6.698;2023-08-12T07:11:54;52.23;;;24.00;;
67861;SDS011;54665;51.462;6.698;2023-08-12T07:13:54;51.50;;;24.80;;
67861;SDS011;54665;51.462;6.698;2023-08-12T07:15:54;48.73;;;23.37;;
67861;SDS011;54665;51.462;6.698;2023-08-12T07:17:55;45.33;;;23.33;;
67861;SDS011;54665;51.462;6.698;2023-08-12T07:19:55;40.20;;;21.20;;
67861;SDS011;54665;51.462;6.698;2023-08-12T07:21:55;35.75;;;19.95;;
67861;SDS011;54665;51.462;6.698;2023-08-12T07:23:55;35.57;;;19.20;;
67861;SDS011;54665;51.462;6.698;2023-08-12T07:25:56;35.30;;;19.30;;
67861;SDS011;54665;51.462;6.698;2023-08-12T07:27:57;33.97;;;19.67;;
67861;SDS011;54665;51.462;6.698;2023-08-12T07:29:58;35.67;;;19.02;;
67861;SDS011;54665;51.462;6.698;2023-08-12T07:31:58;32.60;;;18.23;;
67861;SDS011;54665;51.462;6.698;2023-08-12T07:33:58;29.90;;;16.90;;
67861;SDS011;54665;51.462;6.698;2023-08-12T07:35:58;31.20;;;16.90;;
67861;SDS011;54665;51.462;6.698;2023-08-12T07:37:59;31.50;;;16.27;;
67861;SDS011;54665;51.462;6.698;2023-08-12T07:39:59;25.30;;;15.77;;
67861;SDS011;54665;51.462;6.698;2023-08-12T07:42:00;26.00;;;15.75;;
67861;SDS011;54665;51.462;6.698;2023-08-12T07:44:00;26.57;;;15.30;;
67861;SDS011;54665;51.462;6.698;2023-08-12T07:46:00;27.13;;;14.90;;
67861;SDS011;54665;51.462;6.698;2023-08-12T07:48:01;27.87;;;14.53;;
67861;SDS011;54665;51.462;6.698;2023-08-12T07:50:01;28.83;;;13.97;;
67861;SDS011;54665;51.462;6.698;2023-08-12T07:52:01;25.65;;;14.40;;
67861;SDS011;54665;51.462;6.698;2023-08-12T07:54:02;21.40;;;13.13;;
67861;SDS011;54665;51.462;6.698;2023-08-12T07:56:02;21.03;;;12.90;;
67861;SDS011;54665;51.462;6.698;2023-08-12T07:58:03;25.25;;;13.20;;
67861;SDS011;54665;51.462;6.698;2023-08-12T08:00:03;21.17;;;12.60;;
67861;SDS011;54665;51.462;6.698;2023-08-12T08:02:04;20.88;;;12.88;;
67861;SDS011;54665;51.462;6.698;2023-08-12T08:04:05;19.87;;;12.97;;
67861;SDS011;54665;51.462;6.698;2023-08-12T08:06:05;20.67;;;12.23;;
67861;SDS011;54665;51.462;6.698;2023-08-12T08:08:06;20.87;;;12.43;;
67861;SDS011;54665;51.462;6.698;2023-08-12T08:10:06;18.90;;;12.20;;
67861;SDS011;54665;51.462;6.698;2023-08-12T08:12:07;18.40;;;11.60;;
67861;SDS011;54665;51.462;6.698;2023-08-12T08:14:07;17.55;;;11.15;;
67861;SDS011;54665;51.462;6.698;2023-08-12T08:16:08;15.50;;;10.30;;
67861;SDS011;54665;51.462;6.698;2023-08-12T08:18:08;15.33;;;10.17;;
67861;SDS011;54665;51.462;6.698;2023-08-12T08:20:08;12.13;;;8.53;;
67861;SDS011;54665;51.462;6.698;2023-08-12T08:22:09;11.07;;;7.13;;
67861;SDS011;54665;51.462;6.698;2023-08-12T08:24:09;12.53;;;6.80;;
67861;SDS011;54665;51.462;6.698;2023-08-12T08:26:09;11.20;;;6.50;;
67861;SDS011;54665;51.462;6.698;2023-08-12T08:28:10;9.37;;;6.40;;
67861;SDS011;54665;51.462;6.698;2023-08-12T08:30:10;9.50;;;6.10;;
67861;SDS011;54665;51.462;6.698;2023-08-12T08:32:11;9.63;;;6.10;;
67861;SDS011;54665;51.462;6.698;2023-08-12T08:34:11;8.60;;;6.13;;
67861;SDS011;54665;51.462;6.698;2023-08-12T08:36:11;8.53;;;6.07;;
67861;SDS011;54665;51.462;6.698;2023-08-12T08:38:12;11.15;;;6.55;;
67861;SDS011;54665;51.462;6.698;2023-08-12T08:40:12;9.13;;;6.40;;
67861;SDS011;54665;51.462;6.698;2023-08-12T08:42:12;9.83;;;6.23;;
67861;SDS011;54665;51.462;6.698;2023-08-12T08:44:15;11.18;;;6.78;;
67861;SDS011;54665;51.462;6.698;2023-08-12T08:46:17;10.80;;;6.78;;
67861;SDS011;54665;51.462;6.698;2023-08-12T08:48:17;9.40;;;6.13;;
67861;SDS011;54665;51.462;6.698;2023-08-12T08:50:18;8.82;;;6.10;;
67861;SDS011;54665;51.462;6.698;2023-08-12T08:52:20;10.10;;;6.27;;
67861;SDS011;54665;51.462;6.698;2023-08-12T08:54:21;8.43;;;5.30;;
67861;SDS011;54665;51.462;6.698;2023-08-12T08:56:22;7.77;;;5.33;;
67861;SDS011;54665;51.462;6.698;2023-08-12T08:58:23;8.63;;;5.03;;
67861;SDS011;54665;51.462;6.698;2023-08-12T09:00:24;7.20;;;4.70;;
67861;SDS011;54665;51.462;6.698;2023-08-12T09:02:26;6.95;;;4.97;;
67861;SDS011;54665;51.462;6.698;2023-08-12T09:04:27;7.13;;;4.63;;
67861;SDS011;54665;51.462;6.698;2023-08-12T09:06:28;8.00;;;5.10;;
67861;SDS011;54665;51.462;6.698;2023-08-12T09:08:29;7.70;;;4.95;;
67861;SDS011;54665;51.462;6.698;2023-08-12T09:10:32;7.47;;;4.83;;
67861;SDS011;54665;51.462;6.698;2023-08-12T09:12:33;7.53;;;4.75;;
67861;SDS011;54665;51.462;6.698;2023-08-12T09:14:34;6.18;;;4.72;;
67861;SDS011;54665;51.462;6.698;2023-08-12T09:16:34;7.37;;;4.80;;
67861;SDS011;54665;51.462;6.698;2023-08-12T09:18:36;9.30;;;4.87;;
67861;SDS011;54665;51.462;6.698;2023-08-12T09:20:37;7.30;;;4.75;;
67861;SDS011;54665;51.462;6.698;2023-08-12T09:22:38;7.88;;;4.70;;
67861;SDS011;54665;51.462;6.698;2023-08-12T09:24:39;8.23;;;4.72;;
67861;SDS011;54665;51.462;6.698;2023-08-12T09:26:41;6.77;;;4.80;;
67861;SDS011;54665;51.462;6.698;2023-08-12T09:28:42;7.55;;;4.68;;
67861;SDS011;54665;51.462;6.698;2023-08-12T09:30:43;6.10;;;4.60;;
67861;SDS011;54665;51.462;6.698;2023-08-12T09:33:00;8.07;;;4.75;;
67861;SDS011;54665;51.462;6.698;2023-08-12T09:35:01;7.30;;;4.30;;
67861;SDS011;54665;51.462;6.698;2023-08-12T09:37:02;7.27;;;4.53;;
67861;SDS011;54665;51.462;6.698;2023-08-12T09:39:06;8.17;;;4.30;;
67861;SDS011;54665;51.462;6.698;2023-08-12T09:41:09;7.70;;;4.40;;
67861;SDS011;54665;51.462;6.698;2023-08-12T09:43:10;5.82;;;4.13;;
67861;SDS011;54665;51.462;6.698;2023-08-12T09:45:10;7.47;;;4.10;;
67861;SDS011;54665;51.462;6.698;2023-08-12T09:47:11;6.37;;;4.07;;
67861;SDS011;54665;51.462;6.698;2023-08-12T09:49:11;6.75;;;3.97;;
67861;SDS011;54665;51.462;6.698;2023-08-12T09:51:12;5.80;;;4.00;;
67861;SDS011;54665;51.462;6.698;2023-08-12T09:53:12;5.30;;;3.80;;
67861;SDS011;54665;51.462;6.698;2023-08-12T09:55:12;5.47;;;3.83;;
67861;SDS011;54665;51.462;6.698;2023-08-12T09:57:16;9.68;;;4.00;;
67861;SDS011;54665;51.462;6.698;2023-08-12T09:59:18;6.43;;;3.95;;
67861;SDS011;54665;51.462;6.698;2023-08-12T10:01:19;5.15;;;3.75;;
67861;SDS011;54665;51.462;6.698;2023-08-12T10:03:21;6.50;;;4.17;;
67861;SDS011;54665;51.462;6.698;2023-08-12T10:05:23;4.50;;;3.30;;
67861;SDS011;54665;51.462;6.698;2023-08-12T10:07:27;3.65;;;2.65;;
67861;SDS011;54665;51.462;6.698;2023-08-12T10:09:28;4.43;;;2.90;;
67861;SDS011;54665;51.462;6.698;2023-08-12T10:11:28;3.05;;;2.45;;
67861;SDS011;54665;51.462;6.698;2023-08-12T10:13:28;3.53;;;2.40;;
67861;SDS011;54665;51.462;6.698;2023-08-12T10:15:29;2.77;;;2.17;;
67861;SDS011;54665;51.462;6.698;2023-08-12T10:17:30;4.05;;;2.20;;
67861;SDS011;54665;51.462;6.698;2023-08-12T10:19:31;2.80;;;2.20;;
67861;SDS011;54665;51.462;6.698;2023-08-12T10:21:32;3.30;;;2.20;;
67861;SDS011;54665;51.462;6.698;2023-08-12T10:23:34;3.60;;;2.30;;
67861;SDS011;54665;51.462;6.698;2023-08-12T10:25:34;3.47;;;2.43;;
67861;SDS011;54665;51.462;6.698;2023-08-12T10:27:37;3.92;;;2.20;;
67861;SDS011;54665;51.462;6.698;2023-08-12T10:29:37;2.90;;;2.10;;
67861;SDS011;54665;51.462;6.698;2023-08-12T10:31:38;3.80;;;2.40;;
67861;SDS011;54665;51.462;6.698;2023-08-12T10:33:38;3.00;;;2.25;;
67861;SDS011;54665;51.462;6.698;2023-08-12T10:35:44;2.90;;;2.40;;
67861;SDS011;54665;51.462;6.698;2023-08-12T10:37:48;3.33;;;2.30;;
67861;SDS011;54665;51.462;6.698;2023-08-12T10:39:49;3.83;;;2.45;;
67861;SDS011;54665;51.462;6.698;2023-08-12T10:41:49;3.27;;;2.50;;
67861;SDS011;54665;51.462;6.698;2023-08-12T10:44:00;4.10;;;2.50;;
67861;SDS011;54665;51.462;6.698;2023-08-12T10:46:05;3.85;;;2.42;;
67861;SDS011;54665;51.462;6.698;2023-08-12T10:48:24;3.45;;;2.40;;
67861;SDS011;54665;51.462;6.698;2023-08-12T10:50:25;4.65;;;2.30;;
67861;SDS011;54665;51.462;6.698;2023-08-12T10:52:26;2.80;;;2.10;;
67861;SDS011;54665;51.462;6.698;2023-08-12T10:54:27;3.08;;;2.50;;
67861;SDS011;54665;51.462;6.698;2023-08-12T10:56:28;4.53;;;2.58;;
67861;SDS011;54665;51.462;6.698;2023-08-12T10:58:29;2.73;;;2.20;;
67861;SDS011;54665;51.462;6.698;2023-08-12T11:00:34;2.80;;;2.00;;
67861;SDS011;54665;51.462;6.698;2023-08-12T11:02:35;3.40;;;2.20;;
67861;SDS011;54665;51.462;6.698;2023-08-12T11:04:37;2.80;;;2.20;;
67861;SDS011;54665;51.462;6.698;2023-08-12T11:06:43;2.83;;;1.83;;
67861;SDS011;54665;51.462;6.698;2023-08-12T11:08:46;2.50;;;1.80;;
67861;SDS011;54665;51.462;6.698;2023-08-12T11:10:47;2.65;;;2.05;;
67861;SDS011;54665;51.462;6.698;2023-08-12T11:14:54;3.50;;;1.77;;
67861;SDS011;54665;51.462;6.698;2023-08-12T11:16:54;2.15;;;1.80;;
67861;SDS011;54665;51.462;6.698;2023-08-12T11:18:55;3.00;;;1.90;;
67861;SDS011;54665;51.462;6.698;2023-08-12T11:20:55;2.70;;;1.70;;
67861;SDS011;54665;51.462;6.698;2023-08-12T11:22:56;2.03;;;1.80;;
67861;SDS011;54665;51.462;6.698;2023-08-12T11:24:57;3.73;;;2.03;;
67861;SDS011;54665;51.462;6.698;2023-08-12T11:26:57;2.73;;;1.40;;
67861;SDS011;54665;51.462;6.698;2023-08-12T11:28:57;2.10;;;1.53;;
67861;SDS011;54665;51.462;6.698;2023-08-12T11:30:58;2.70;;;1.77;;
67861;SDS011;54665;51.462;6.698;2023-08-12T11:32:59;2.87;;;2.00;;
67861;SDS011;54665;51.462;6.698;2023-08-12T11:35:01;2.95;;;2.10;;
67861;SDS011;54665;51.462;6.698;2023-08-12T11:37:03;3.25;;;2.00;;
67861;SDS011;54665;51.462;6.698;2023-08-12T11:39:03;3.80;;;2.40;;
67861;SDS011;54665;51.462;6.698;2023-08-12T11:41:04;4.20;;;2.78;;
67861;SDS011;54665;51.462;6.698;2023-08-12T11:43:04;3.30;;;2.47;;
67861;SDS011;54665;51.462;6.698;2023-08-12T11:45:04;3.90;;;2.63;;
67861;SDS011;54665;51.462;6.698;2023-08-12T11:47:06;5.15;;;2.88;;
67861;SDS011;54665;51.462;6.698;2023-08-12T11:49:06;5.07;;;3.10;;
67861;SDS011;54665;51.462;6.698;2023-08-12T11:51:06;4.67;;;3.10;;
67861;SDS011;54665;51.462;6.698;2023-08-12T11:53:07;4.77;;;3.33;;
67861;SDS011;54665;51.462;6.698;2023-08-12T11:55:07;6.90;;;3.40;;